sensor_id;sensor_type;location;lat;lon;timestamp;P1;P2;P0
55754;PMS5003;41674;52.290;-1.474;2023-01-09T00:01:11;5;4;
55754;PMS5003;41674;52.290;-1.474;2023-01-09T00:03:39;3;3;
55754;PMS5003;41674;52.290;-1.474;2023-01-09T00:06:09;4;3;
55754;PMS5003;41674;52.290;-1.474;2023-01-09T00:08:39;8;3;
55754;PMS5003;41674;52.290;-1.474;2023-01-09T00:11:08;4;4;
55754;PMS5003;41674;52.290;-1.474;2023-01-09T00:13:38;5;3;
55754;PMS5003;41674;52.290;-1.474;2023-01-09T00:16:08;6;4;
55754;PMS5003;41674;52.290;-1.474;2023-01-09T00:18:37;4;4;
55754;PMS5003;41674;52.290;-1.474;2023-01-09T00:21:07;5;5;
55754;PMS5003;41674;52.290;-1.474;2023-01-09T00:23:37;4;4;
55754;PMS5003;41674;52.290;-1.474;2023-01-09T00:26:07;4;4;
55754;PMS5003;41674;52.290;-1.474;2023-01-09T00:28:36;2;2;
55754;PMS5003;41674;52.290;-1.474;2023-01-09T00:33:36;4;3;
55754;PMS5003;41674;52.290;-1.474;2023-01-09T00:36:05;5;4;
55754;PMS5003;41674;52.290;-1.474;2023-01-09T00:38:35;10;5;
55754;PMS5003;41674;52.290;-1.474;2023-01-09T00:41:05;4;4;
55754;PMS5003;41674;52.290;-1.474;2023-01-09T00:43:36;6;5;
55754;PMS5003;41674;52.290;-1.474;2023-01-09T00:46:04;6;4;
55754;PMS5003;41674;52.290;-1.474;2023-01-09T00:48:34;3;3;
55754;PMS5003;41674;52.290;-1.474;2023-01-09T00:51:03;4;4;
55754;PMS5003;41674;52.290;-1.474;2023-01-09T00:53:34;4;4;
55754;PMS5003;41674;52.290;-1.474;2023-01-09T00:56:03;9;6;
55754;PMS5003;41674;52.290;-1.474;2023-01-09T00:58:32;6;6;
55754;PMS5003;41674;52.290;-1.474;2023-01-09T01:01:02;8;5;
55754;PMS5003;41674;52.290;-1.474;2023-01-09T01:03:31;3;3;
55754;PMS5003;41674;52.290;-1.474;2023-01-09T01:06:01;7;5;
55754;PMS5003;41674;52.290;-1.474;2023-01-09T01:08:31;5;5;
55754;PMS5003;41674;52.290;-1.474;2023-01-09T01:11:02;6;6;
55754;PMS5003;41674;52.290;-1.474;2023-01-09T01:13:30;10;8;
55754;PMS5003;41674;52.290;-1.474;2023-01-09T01:16:01;5;5;
55754;PMS5003;41674;52.290;-1.474;2023-01-09T01:18:30;5;5;
55754;PMS5003;41674;52.290;-1.474;2023-01-09T01:20:59;8;5;
55754;PMS5003;41674;52.290;-1.474;2023-01-09T01:23:29;9;6;
55754;PMS5003;41674;52.290;-1.474;2023-01-09T01:26:02;6;6;
55754;PMS5003;41674;52.290;-1.474;2023-01-09T01:28:28;5;4;
55754;PMS5003;41674;52.290;-1.474;2023-01-09T01:30:58;8;6;
55754;PMS5003;41674;52.290;-1.474;2023-01-09T01:33:27;5;4;
55754;PMS5003;41674;52.290;-1.474;2023-01-09T01:35:58;8;5;
55754;PMS5003;41674;52.290;-1.474;2023-01-09T01:38:27;6;4;
55754;PMS5003;41674;52.290;-1.474;2023-01-09T01:40:56;5;5;
55754;PMS5003;41674;52.290;-1.474;2023-01-09T01:43:26;8;8;
55754;PMS5003;41674;52.290;-1.474;2023-01-09T01:45:56;7;6;
55754;PMS5003;41674;52.290;-1.474;2023-01-09T01:48:26;4;4;
55754;PMS5003;41674;52.290;-1.474;2023-01-09T01:50:57;5;4;
55754;PMS5003;41674;52.290;-1.474;2023-01-09T01:53:25;5;5;
55754;PMS5003;41674;52.290;-1.474;2023-01-09T01:55:58;5;5;
55754;PMS5003;41674;52.290;-1.474;2023-01-09T01:58:24;5;5;
55754;PMS5003;41674;52.290;-1.474;2023-01-09T02:00:54;6;6;
55754;PMS5003;41674;52.290;-1.474;2023-01-09T02:03:25;4;4;
55754;PMS5003;41674;52.290;-1.474;2023-01-09T02:05:54;7;6;
55754;PMS5003;41674;52.290;-1.474;2023-01-09T02:08:23;3;3;
55754;PMS5003;41674;52.290;-1.474;2023-01-09T02:10:53;3;3;
55754;PMS5003;41674;52.290;-1.474;2023-01-09T02:13:22;2;1;
55754;PMS5003;41674;52.290;-1.474;2023-01-09T02:15:57;3;1;
55754;PMS5003;41674;52.290;-1.474;2023-01-09T02:18:26;5;4;
55754;PMS5003;41674;52.290;-1.474;2023-01-09T02:20:53;4;3;
55754;PMS5003;41674;52.290;-1.474;2023-01-09T02:23:38;3;1;
55754;PMS5003;41674;52.290;-1.474;2023-01-09T02:25:58;6;3;
55754;PMS5003;41674;52.290;-1.474;2023-01-09T02:30:50;3;3;
55754;PMS5003;41674;52.290;-1.474;2023-01-09T02:33:24;2;1;
55754;PMS5003;41674;52.290;-1.474;2023-01-09T02:38:22;3;3;
55754;PMS5003;41674;52.290;-1.474;2023-01-09T02:40:51;5;5;
55754;PMS5003;41674;52.290;-1.474;2023-01-09T02:43:19;4;2;
55754;PMS5003;41674;52.290;-1.474;2023-01-09T02:45:48;3;2;
55754;PMS5003;41674;52.290;-1.474;2023-01-09T02:48:18;5;4;
55754;PMS5003;41674;52.290;-1.474;2023-01-09T02:50:49;2;1;
55754;PMS5003;41674;52.290;-1.474;2023-01-09T02:53:25;4;2;
55754;PMS5003;41674;52.290;-1.474;2023-01-09T02:55:50;2;1;
55754;PMS5003;41674;52.290;-1.474;2023-01-09T02:58:24;2;2;
55754;PMS5003;41674;52.290;-1.474;2023-01-09T03:00:48;1;1;
55754;PMS5003;41674;52.290;-1.474;2023-01-09T03:03:18;3;3;
55754;PMS5003;41674;52.290;-1.474;2023-01-09T03:05:48;3;3;
55754;PMS5003;41674;52.290;-1.474;2023-01-09T03:08:17;2;2;
55754;PMS5003;41674;52.290;-1.474;2023-01-09T03:10:47;3;2;
55754;PMS5003;41674;52.290;-1.474;2023-01-09T03:13:16;2;2;
55754;PMS5003;41674;52.290;-1.474;2023-01-09T03:15:45;3;3;
55754;PMS5003;41674;52.290;-1.474;2023-01-09T03:18:15;1;1;
55754;PMS5003;41674;52.290;-1.474;2023-01-09T03:20:44;1;1;
55754;PMS5003;41674;52.290;-1.474;2023-01-09T03:23:14;2;2;
55754;PMS5003;41674;52.290;-1.474;2023-01-09T03:25:43;2;2;
55754;PMS5003;41674;52.290;-1.474;2023-01-09T03:28:17;4;4;
55754;PMS5003;41674;52.290;-1.474;2023-01-09T03:30:43;2;1;
55754;PMS5003;41674;52.290;-1.474;2023-01-09T03:33:12;2;2;
55754;PMS5003;41674;52.290;-1.474;2023-01-09T03:35:42;3;3;
55754;PMS5003;41674;52.290;-1.474;2023-01-09T03:38:12;4;3;
55754;PMS5003;41674;52.290;-1.474;2023-01-09T03:40:42;4;4;
55754;PMS5003;41674;52.290;-1.474;2023-01-09T03:43:11;3;3;
55754;PMS5003;41674;52.290;-1.474;2023-01-09T03:45:41;3;3;
55754;PMS5003;41674;52.290;-1.474;2023-01-09T03:48:11;5;4;
55754;PMS5003;41674;52.290;-1.474;2023-01-09T03:50:41;2;2;
55754;PMS5003;41674;52.290;-1.474;2023-01-09T03:53:10;1;1;
55754;PMS5003;41674;52.290;-1.474;2023-01-09T03:55:42;1;1;
55754;PMS5003;41674;52.290;-1.474;2023-01-09T03:58:10;5;2;
55754;PMS5003;41674;52.290;-1.474;2023-01-09T04:00:40;3;1;
55754;PMS5003;41674;52.290;-1.474;2023-01-09T04:03:09;5;2;
55754;PMS5003;41674;52.290;-1.474;2023-01-09T04:05:39;2;1;
55754;PMS5003;41674;52.290;-1.474;2023-01-09T04:08:09;3;2;
55754;PMS5003;41674;52.290;-1.474;2023-01-09T04:10:38;1;1;
55754;PMS5003;41674;52.290;-1.474;2023-01-09T04:13:08;1;1;
55754;PMS5003;41674;52.290;-1.474;2023-01-09T04:15:38;2;2;
55754;PMS5003;41674;52.290;-1.474;2023-01-09T04:18:07;1;1;
55754;PMS5003;41674;52.290;-1.474;2023-01-09T04:20:37;1;1;
55754;PMS5003;41674;52.290;-1.474;2023-01-09T04:23:07;2;2;
55754;PMS5003;41674;52.290;-1.474;2023-01-09T04:25:36;2;2;
55754;PMS5003;41674;52.290;-1.474;2023-01-09T04:28:06;2;2;
55754;PMS5003;41674;52.290;-1.474;2023-01-09T04:30:36;0;0;
55754;PMS5003;41674;52.290;-1.474;2023-01-09T04:33:06;1;1;
55754;PMS5003;41674;52.290;-1.474;2023-01-09T04:35:35;2;2;
55754;PMS5003;41674;52.290;-1.474;2023-01-09T04:38:05;2;2;
55754;PMS5003;41674;52.290;-1.474;2023-01-09T04:40:35;2;2;
55754;PMS5003;41674;52.290;-1.474;2023-01-09T04:43:04;2;1;
55754;PMS5003;41674;52.290;-1.474;2023-01-09T04:45:34;4;2;
55754;PMS5003;41674;52.290;-1.474;2023-01-09T04:48:04;2;2;
55754;PMS5003;41674;52.290;-1.474;2023-01-09T04:50:34;4;3;
55754;PMS5003;41674;52.290;-1.474;2023-01-09T04:53:03;3;3;
55754;PMS5003;41674;52.290;-1.474;2023-01-09T04:55:33;4;4;
55754;PMS5003;41674;52.290;-1.474;2023-01-09T04:58:02;2;2;
55754;PMS5003;41674;52.290;-1.474;2023-01-09T05:00:32;3;1;
55754;PMS5003;41674;52.290;-1.474;2023-01-09T05:03:02;2;1;
55754;PMS5003;41674;52.290;-1.474;2023-01-09T05:05:31;4;2;
55754;PMS5003;41674;52.290;-1.474;2023-01-09T05:08:01;1;1;
55754;PMS5003;41674;52.290;-1.474;2023-01-09T05:10:31;1;0;
55754;PMS5003;41674;52.290;-1.474;2023-01-09T05:13:01;3;2;
55754;PMS5003;41674;52.290;-1.474;2023-01-09T05:15:30;3;3;
55754;PMS5003;41674;52.290;-1.474;2023-01-09T05:18:00;4;2;
55754;PMS5003;41674;52.290;-1.474;2023-01-09T05:20:30;3;1;
55754;PMS5003;41674;52.290;-1.474;2023-01-09T05:23:00;1;1;
55754;PMS5003;41674;52.290;-1.474;2023-01-09T05:25:29;2;2;
55754;PMS5003;41674;52.290;-1.474;2023-01-09T05:27:59;1;1;
55754;PMS5003;41674;52.290;-1.474;2023-01-09T05:30:28;1;1;
55754;PMS5003;41674;52.290;-1.474;2023-01-09T05:32:58;5;3;
55754;PMS5003;41674;52.290;-1.474;2023-01-09T05:35:28;1;1;
55754;PMS5003;41674;52.290;-1.474;2023-01-09T05:37:57;2;2;
55754;PMS5003;41674;52.290;-1.474;2023-01-09T05:40:27;1;1;
55754;PMS5003;41674;52.290;-1.474;2023-01-09T05:42:57;1;1;
55754;PMS5003;41674;52.290;-1.474;2023-01-09T05:45:26;0;0;
55754;PMS5003;41674;52.290;-1.474;2023-01-09T05:47:56;2;2;
55754;PMS5003;41674;52.290;-1.474;2023-01-09T05:50:26;3;1;
55754;PMS5003;41674;52.290;-1.474;2023-01-09T05:52:55;2;2;
55754;PMS5003;41674;52.290;-1.474;2023-01-09T05:55:25;3;2;
55754;PMS5003;41674;52.290;-1.474;2023-01-09T05:57:55;2;2;
55754;PMS5003;41674;52.290;-1.474;2023-01-09T06:00:24;4;3;
55754;PMS5003;41674;52.290;-1.474;2023-01-09T06:02:54;2;2;
55754;PMS5003;41674;52.290;-1.474;2023-01-09T06:05:24;2;2;
55754;PMS5003;41674;52.290;-1.474;2023-01-09T06:07:53;3;3;
55754;PMS5003;41674;52.290;-1.474;2023-01-09T06:10:23;3;2;
55754;PMS5003;41674;52.290;-1.474;2023-01-09T06:12:53;0;0;
55754;PMS5003;41674;52.290;-1.474;2023-01-09T06:15:22;2;1;
55754;PMS5003;41674;52.290;-1.474;2023-01-09T06:17:52;3;1;
55754;PMS5003;41674;52.290;-1.474;2023-01-09T06:20:22;5;2;
55754;PMS5003;41674;52.290;-1.474;2023-01-09T06:22:52;2;2;
55754;PMS5003;41674;52.290;-1.474;2023-01-09T06:25:21;2;1;
55754;PMS5003;41674;52.290;-1.474;2023-01-09T06:27:51;2;2;
55754;PMS5003;41674;52.290;-1.474;2023-01-09T06:30:21;2;2;
55754;PMS5003;41674;52.290;-1.474;2023-01-09T06:32:50;4;1;
55754;PMS5003;41674;52.290;-1.474;2023-01-09T06:35:20;2;1;
55754;PMS5003;41674;52.290;-1.474;2023-01-09T06:37:50;2;1;
55754;PMS5003;41674;52.290;-1.474;2023-01-09T06:40:20;2;1;
55754;PMS5003;41674;52.290;-1.474;2023-01-09T06:42:49;1;1;
55754;PMS5003;41674;52.290;-1.474;2023-01-09T06:45:19;1;1;
55754;PMS5003;41674;52.290;-1.474;2023-01-09T06:47:48;1;1;
55754;PMS5003;41674;52.290;-1.474;2023-01-09T06:50:18;2;1;
55754;PMS5003;41674;52.290;-1.474;2023-01-09T06:52:48;0;0;
55754;PMS5003;41674;52.290;-1.474;2023-01-09T06:55:17;2;1;
55754;PMS5003;41674;52.290;-1.474;2023-01-09T06:57:47;2;2;
55754;PMS5003;41674;52.290;-1.474;2023-01-09T07:00:17;5;2;
55754;PMS5003;41674;52.290;-1.474;2023-01-09T07:02:47;3;1;
55754;PMS5003;41674;52.290;-1.474;2023-01-09T07:05:16;2;1;
55754;PMS5003;41674;52.290;-1.474;2023-01-09T07:07:46;2;2;
55754;PMS5003;41674;52.290;-1.474;2023-01-09T07:10:16;1;0;
55754;PMS5003;41674;52.290;-1.474;2023-01-09T07:12:45;5;4;
55754;PMS5003;41674;52.290;-1.474;2023-01-09T07:15:15;2;1;
55754;PMS5003;41674;52.290;-1.474;2023-01-09T07:17:44;2;0;
55754;PMS5003;41674;52.290;-1.474;2023-01-09T07:20:15;4;2;
55754;PMS5003;41674;52.290;-1.474;2023-01-09T07:22:44;1;1;
55754;PMS5003;41674;52.290;-1.474;2023-01-09T07:25:14;3;3;
55754;PMS5003;41674;52.290;-1.474;2023-01-09T07:27:43;1;1;
55754;PMS5003;41674;52.290;-1.474;2023-01-09T07:30:13;3;2;
55754;PMS5003;41674;52.290;-1.474;2023-01-09T07:32:43;3;2;
55754;PMS5003;41674;52.290;-1.474;2023-01-09T07:35:12;2;1;
55754;PMS5003;41674;52.290;-1.474;2023-01-09T07:37:42;1;1;
55754;PMS5003;41674;52.290;-1.474;2023-01-09T07:40:12;4;2;
55754;PMS5003;41674;52.290;-1.474;2023-01-09T07:42:42;0;0;
55754;PMS5003;41674;52.290;-1.474;2023-01-09T07:45:11;1;1;
55754;PMS5003;41674;52.290;-1.474;2023-01-09T07:47:41;3;1;
55754;PMS5003;41674;52.290;-1.474;2023-01-09T07:50:11;2;0;
55754;PMS5003;41674;52.290;-1.474;2023-01-09T07:52:40;3;1;
55754;PMS5003;41674;52.290;-1.474;2023-01-09T07:55:10;2;2;
55754;PMS5003;41674;52.290;-1.474;2023-01-09T07:57:40;3;2;
55754;PMS5003;41674;52.290;-1.474;2023-01-09T08:00:10;1;1;
55754;PMS5003;41674;52.290;-1.474;2023-01-09T08:02:39;1;0;
55754;PMS5003;41674;52.290;-1.474;2023-01-09T08:05:09;1;1;
55754;PMS5003;41674;52.290;-1.474;2023-01-09T08:07:38;2;2;
55754;PMS5003;41674;52.290;-1.474;2023-01-09T08:10:09;1;0;
55754;PMS5003;41674;52.290;-1.474;2023-01-09T08:12:41;2;1;
55754;PMS5003;41674;52.290;-1.474;2023-01-09T08:15:08;0;0;
55754;PMS5003;41674;52.290;-1.474;2023-01-09T08:20:07;2;2;
55754;PMS5003;41674;52.290;-1.474;2023-01-09T08:22:37;0;0;
55754;PMS5003;41674;52.290;-1.474;2023-01-09T08:25:07;1;1;
55754;PMS5003;41674;52.290;-1.474;2023-01-09T08:27:36;1;1;
55754;PMS5003;41674;52.290;-1.474;2023-01-09T08:30:06;1;1;
55754;PMS5003;41674;52.290;-1.474;2023-01-09T08:32:35;1;1;
55754;PMS5003;41674;52.290;-1.474;2023-01-09T08:35:05;1;1;
55754;PMS5003;41674;52.290;-1.474;2023-01-09T08:37:34;1;1;
55754;PMS5003;41674;52.290;-1.474;2023-01-09T08:40:05;1;1;
55754;PMS5003;41674;52.290;-1.474;2023-01-09T08:42:34;3;2;
55754;PMS5003;41674;52.290;-1.474;2023-01-09T08:45:04;1;0;
55754;PMS5003;41674;52.290;-1.474;2023-01-09T08:47:33;1;1;
55754;PMS5003;41674;52.290;-1.474;2023-01-09T08:50:03;1;1;
55754;PMS5003;41674;52.290;-1.474;2023-01-09T08:52:33;2;0;
55754;PMS5003;41674;52.290;-1.474;2023-01-09T08:55:02;0;0;
55754;PMS5003;41674;52.290;-1.474;2023-01-09T08:57:32;1;0;
55754;PMS5003;41674;52.290;-1.474;2023-01-09T09:00:02;1;1;
55754;PMS5003;41674;52.290;-1.474;2023-01-09T09:02:31;0;0;
55754;PMS5003;41674;52.290;-1.474;2023-01-09T09:05:01;1;0;
55754;PMS5003;41674;52.290;-1.474;2023-01-09T09:07:31;1;1;
55754;PMS5003;41674;52.290;-1.474;2023-01-09T09:10:00;1;1;
55754;PMS5003;41674;52.290;-1.474;2023-01-09T09:12:30;2;1;
55754;PMS5003;41674;52.290;-1.474;2023-01-09T09:15:00;0;0;
55754;PMS5003;41674;52.290;-1.474;2023-01-09T09:17:29;1;1;
55754;PMS5003;41674;52.290;-1.474;2023-01-09T09:19:59;1;1;
55754;PMS5003;41674;52.290;-1.474;2023-01-09T09:22:29;2;0;
55754;PMS5003;41674;52.290;-1.474;2023-01-09T09:24:58;1;1;
55754;PMS5003;41674;52.290;-1.474;2023-01-09T09:27:28;0;0;
55754;PMS5003;41674;52.290;-1.474;2023-01-09T09:29:58;3;1;
55754;PMS5003;41674;52.290;-1.474;2023-01-09T09:32:27;1;1;
55754;PMS5003;41674;52.290;-1.474;2023-01-09T09:34:57;1;1;
55754;PMS5003;41674;52.290;-1.474;2023-01-09T09:37:27;1;0;
55754;PMS5003;41674;52.290;-1.474;2023-01-09T09:39:57;4;1;
55754;PMS5003;41674;52.290;-1.474;2023-01-09T09:42:34;0;0;
55754;PMS5003;41674;52.290;-1.474;2023-01-09T09:45:00;2;2;
55754;PMS5003;41674;52.290;-1.474;2023-01-09T09:47:30;0;0;
55754;PMS5003;41674;52.290;-1.474;2023-01-09T09:49:59;1;0;
55754;PMS5003;41674;52.290;-1.474;2023-01-09T09:52:28;3;0;
55754;PMS5003;41674;52.290;-1.474;2023-01-09T09:54:55;2;2;
55754;PMS5003;41674;52.290;-1.474;2023-01-09T09:57:24;0;0;
55754;PMS5003;41674;52.290;-1.474;2023-01-09T09:59:54;2;1;
55754;PMS5003;41674;52.290;-1.474;2023-01-09T10:02:24;1;1;
55754;PMS5003;41674;52.290;-1.474;2023-01-09T10:04:55;1;1;
55754;PMS5003;41674;52.290;-1.474;2023-01-09T10:07:25;0;0;
55754;PMS5003;41674;52.290;-1.474;2023-01-09T10:09:53;0;0;
55754;PMS5003;41674;52.290;-1.474;2023-01-09T10:12:26;1;1;
55754;PMS5003;41674;52.290;-1.474;2023-01-09T10:14:52;0;0;
55754;PMS5003;41674;52.290;-1.474;2023-01-09T10:17:26;1;1;
55754;PMS5003;41674;52.290;-1.474;2023-01-09T10:19:56;0;0;
55754;PMS5003;41674;52.290;-1.474;2023-01-09T10:22:23;1;0;
55754;PMS5003;41674;52.290;-1.474;2023-01-09T10:24:56;0;0;
55754;PMS5003;41674;52.290;-1.474;2023-01-09T10:27:22;1;0;
55754;PMS5003;41674;52.290;-1.474;2023-01-09T10:29:53;0;0;
55754;PMS5003;41674;52.290;-1.474;2023-01-09T10:32:29;1;1;
55754;PMS5003;41674;52.290;-1.474;2023-01-09T10:34:52;1;1;
55754;PMS5003;41674;52.290;-1.474;2023-01-09T10:37:20;4;2;
55754;PMS5003;41674;52.290;-1.474;2023-01-09T10:39:51;1;1;
55754;PMS5003;41674;52.290;-1.474;2023-01-09T10:42:20;1;0;
55754;PMS5003;41674;52.290;-1.474;2023-01-09T10:44:50;1;1;
55754;PMS5003;41674;52.290;-1.474;2023-01-09T10:47:22;2;1;
55754;PMS5003;41674;52.290;-1.474;2023-01-09T10:49:48;0;0;
55754;PMS5003;41674;52.290;-1.474;2023-01-09T10:52:18;1;1;
55754;PMS5003;41674;52.290;-1.474;2023-01-09T10:54:50;1;1;
55754;PMS5003;41674;52.290;-1.474;2023-01-09T10:57:21;1;1;
55754;PMS5003;41674;52.290;-1.474;2023-01-09T10:59:46;1;1;
55754;PMS5003;41674;52.290;-1.474;2023-01-09T11:02:25;2;1;
55754;PMS5003;41674;52.290;-1.474;2023-01-09T11:04:45;0;0;
55754;PMS5003;41674;52.290;-1.474;2023-01-09T11:07:17;0;0;
55754;PMS5003;41674;52.290;-1.474;2023-01-09T11:14:44;1;1;
55754;PMS5003;41674;52.290;-1.474;2023-01-09T11:17:17;0;0;
55754;PMS5003;41674;52.290;-1.474;2023-01-09T11:19:45;0;0;
55754;PMS5003;41674;52.290;-1.474;2023-01-09T11:22:14;0;0;
55754;PMS5003;41674;52.290;-1.474;2023-01-09T11:24:43;2;0;
55754;PMS5003;41674;52.290;-1.474;2023-01-09T11:27:15;1;1;
55754;PMS5003;41674;52.290;-1.474;2023-01-09T11:29:42;2;2;
55754;PMS5003;41674;52.290;-1.474;2023-01-09T11:34:43;1;1;
55754;PMS5003;41674;52.290;-1.474;2023-01-09T11:37:12;2;2;
55754;PMS5003;41674;52.290;-1.474;2023-01-09T11:39:43;0;0;
55754;PMS5003;41674;52.290;-1.474;2023-01-09T11:42:17;4;2;
55754;PMS5003;41674;52.290;-1.474;2023-01-09T11:44:40;0;0;
55754;PMS5003;41674;52.290;-1.474;2023-01-09T11:47:22;0;0;
55754;PMS5003;41674;52.290;-1.474;2023-01-09T11:49:40;2;2;
55754;PMS5003;41674;52.290;-1.474;2023-01-09T11:52:13;3;3;
55754;PMS5003;41674;52.290;-1.474;2023-01-09T11:54:39;2;0;
55754;PMS5003;41674;52.290;-1.474;2023-01-09T11:57:09;3;2;
55754;PMS5003;41674;52.290;-1.474;2023-01-09T11:59:38;2;1;
55754;PMS5003;41674;52.290;-1.474;2023-01-09T12:04:40;3;3;
55754;PMS5003;41674;52.290;-1.474;2023-01-09T12:07:14;3;2;
55754;PMS5003;41674;52.290;-1.474;2023-01-09T12:09:39;4;3;
55754;PMS5003;41674;52.290;-1.474;2023-01-09T12:12:10;5;3;
55754;PMS5003;41674;52.290;-1.474;2023-01-09T12:14:40;3;1;
55754;PMS5003;41674;52.290;-1.474;2023-01-09T12:17:15;2;1;
55754;PMS5003;41674;52.290;-1.474;2023-01-09T12:19:40;1;1;
55754;PMS5003;41674;52.290;-1.474;2023-01-09T12:22:06;2;2;
55754;PMS5003;41674;52.290;-1.474;2023-01-09T12:24:41;1;1;
55754;PMS5003;41674;52.290;-1.474;2023-01-09T12:27:08;5;1;
55754;PMS5003;41674;52.290;-1.474;2023-01-09T12:29:38;3;3;
55754;PMS5003;41674;52.290;-1.474;2023-01-09T12:32:13;3;2;
55754;PMS5003;41674;52.290;-1.474;2023-01-09T12:34:38;3;2;
55754;PMS5003;41674;52.290;-1.474;2023-01-09T12:37:08;3;2;
55754;PMS5003;41674;52.290;-1.474;2023-01-09T12:39:34;2;2;
55754;PMS5003;41674;52.290;-1.474;2023-01-09T12:42:07;5;3;
55754;PMS5003;41674;52.290;-1.474;2023-01-09T12:44:35;1;0;
55754;PMS5003;41674;52.290;-1.474;2023-01-09T12:47:06;3;2;
55754;PMS5003;41674;52.290;-1.474;2023-01-09T12:49:32;3;2;
55754;PMS5003;41674;52.290;-1.474;2023-01-09T12:52:03;3;3;
55754;PMS5003;41674;52.290;-1.474;2023-01-09T12:54:32;2;1;
55754;PMS5003;41674;52.290;-1.474;2023-01-09T12:57:02;1;1;
55754;PMS5003;41674;52.290;-1.474;2023-01-09T12:59:31;1;1;
55754;PMS5003;41674;52.290;-1.474;2023-01-09T13:02:04;3;2;
55754;PMS5003;41674;52.290;-1.474;2023-01-09T13:04:29;3;2;
55754;PMS5003;41674;52.290;-1.474;2023-01-09T13:07:00;1;0;
55754;PMS5003;41674;52.290;-1.474;2023-01-09T13:09:31;1;1;
55754;PMS5003;41674;52.290;-1.474;2023-01-09T13:12:01;5;3;
55754;PMS5003;41674;52.290;-1.474;2023-01-09T13:14:33;4;2;
55754;PMS5003;41674;52.290;-1.474;2023-01-09T13:16:58;2;2;
55754;PMS5003;41674;52.290;-1.474;2023-01-09T13:19:28;5;3;
55754;PMS5003;41674;52.290;-1.474;2023-01-09T13:21:57;3;2;
55754;PMS5003;41674;52.290;-1.474;2023-01-09T13:24:28;4;4;
55754;PMS5003;41674;52.290;-1.474;2023-01-09T13:26:57;2;2;
55754;PMS5003;41674;52.290;-1.474;2023-01-09T13:29:26;2;2;
55754;PMS5003;41674;52.290;-1.474;2023-01-09T13:32:00;4;3;
55754;PMS5003;41674;52.290;-1.474;2023-01-09T13:34:26;2;2;
55754;PMS5003;41674;52.290;-1.474;2023-01-09T13:36:55;4;2;
55754;PMS5003;41674;52.290;-1.474;2023-01-09T13:39:25;1;0;
55754;PMS5003;41674;52.290;-1.474;2023-01-09T13:41:56;3;1;
55754;PMS5003;41674;52.290;-1.474;2023-01-09T13:44:24;2;1;
55754;PMS5003;41674;52.290;-1.474;2023-01-09T13:46:54;2;2;
55754;PMS5003;41674;52.290;-1.474;2023-01-09T13:49:28;4;4;
55754;PMS5003;41674;52.290;-1.474;2023-01-09T13:51:57;2;1;
55754;PMS5003;41674;52.290;-1.474;2023-01-09T13:59:25;5;2;
55754;PMS5003;41674;52.290;-1.474;2023-01-09T14:01:51;4;2;
55754;PMS5003;41674;52.290;-1.474;2023-01-09T14:04:34;2;2;
55754;PMS5003;41674;52.290;-1.474;2023-01-09T14:09:21;2;2;
55754;PMS5003;41674;52.290;-1.474;2023-01-09T14:12:00;3;3;
55754;PMS5003;41674;52.290;-1.474;2023-01-09T14:14:21;3;3;
55754;PMS5003;41674;52.290;-1.474;2023-01-09T14:16:49;2;1;
55754;PMS5003;41674;52.290;-1.474;2023-01-09T14:19:23;4;2;
55754;PMS5003;41674;52.290;-1.474;2023-01-09T14:21:49;3;2;
55754;PMS5003;41674;52.290;-1.474;2023-01-09T14:24:19;2;2;
55754;PMS5003;41674;52.290;-1.474;2023-01-09T14:26:48;3;0;
55754;PMS5003;41674;52.290;-1.474;2023-01-09T14:31:47;6;3;
55754;PMS5003;41674;52.290;-1.474;2023-01-09T14:36:46;3;1;
55754;PMS5003;41674;52.290;-1.474;2023-01-09T14:39:16;2;1;
55754;PMS5003;41674;52.290;-1.474;2023-01-09T14:41:47;0;0;
55754;PMS5003;41674;52.290;-1.474;2023-01-09T14:44:20;1;1;
55754;PMS5003;41674;52.290;-1.474;2023-01-09T14:46:45;1;0;
55754;PMS5003;41674;52.290;-1.474;2023-01-09T14:49:15;6;4;
55754;PMS5003;41674;52.290;-1.474;2023-01-09T14:51:44;2;2;
55754;PMS5003;41674;52.290;-1.474;2023-01-09T14:54:17;0;0;
55754;PMS5003;41674;52.290;-1.474;2023-01-09T14:56:44;4;3;
55754;PMS5003;41674;52.290;-1.474;2023-01-09T14:59:13;3;2;
55754;PMS5003;41674;52.290;-1.474;2023-01-09T15:01:43;4;3;
55754;PMS5003;41674;52.290;-1.474;2023-01-09T15:04:20;3;1;
55754;PMS5003;41674;52.290;-1.474;2023-01-09T15:06:42;3;2;
55754;PMS5003;41674;52.290;-1.474;2023-01-09T15:09:15;3;2;
55754;PMS5003;41674;52.290;-1.474;2023-01-09T15:11:42;3;1;
55754;PMS5003;41674;52.290;-1.474;2023-01-09T15:14:24;2;2;
55754;PMS5003;41674;52.290;-1.474;2023-01-09T15:16:42;2;2;
55754;PMS5003;41674;52.290;-1.474;2023-01-09T15:19:11;2;2;
55754;PMS5003;41674;52.290;-1.474;2023-01-09T15:21:54;4;3;
55754;PMS5003;41674;52.290;-1.474;2023-01-09T15:24:11;2;2;
55754;PMS5003;41674;52.290;-1.474;2023-01-09T15:26:40;1;1;
55754;PMS5003;41674;52.290;-1.474;2023-01-09T15:29:12;4;3;
55754;PMS5003;41674;52.290;-1.474;2023-01-09T15:31:39;2;2;
55754;PMS5003;41674;52.290;-1.474;2023-01-09T15:34:08;6;4;
55754;PMS5003;41674;52.290;-1.474;2023-01-09T15:36:38;3;3;
55754;PMS5003;41674;52.290;-1.474;2023-01-09T15:39:08;1;1;
55754;PMS5003;41674;52.290;-1.474;2023-01-09T15:41:37;2;1;
55754;PMS5003;41674;52.290;-1.474;2023-01-09T15:44:10;3;3;
55754;PMS5003;41674;52.290;-1.474;2023-01-09T15:46:37;2;2;
55754;PMS5003;41674;52.290;-1.474;2023-01-09T15:49:07;2;2;
55754;PMS5003;41674;52.290;-1.474;2023-01-09T15:51:36;4;2;
55754;PMS5003;41674;52.290;-1.474;2023-01-09T15:56:35;4;2;
55754;PMS5003;41674;52.290;-1.474;2023-01-09T16:01:35;6;3;
55754;PMS5003;41674;52.290;-1.474;2023-01-09T16:04:04;4;3;
55754;PMS5003;41674;52.290;-1.474;2023-01-09T16:06:34;3;3;
55754;PMS5003;41674;52.290;-1.474;2023-01-09T16:09:03;4;3;
55754;PMS5003;41674;52.290;-1.474;2023-01-09T16:11:34;6;3;
55754;PMS5003;41674;52.290;-1.474;2023-01-09T16:16:32;3;2;
55754;PMS5003;41674;52.290;-1.474;2023-01-09T16:19:02;2;2;
55754;PMS5003;41674;52.290;-1.474;2023-01-09T16:21:33;3;2;
55754;PMS5003;41674;52.290;-1.474;2023-01-09T16:24:02;2;2;
55754;PMS5003;41674;52.290;-1.474;2023-01-09T16:26:31;4;2;
55754;PMS5003;41674;52.290;-1.474;2023-01-09T16:31:30;3;2;
55754;PMS5003;41674;52.290;-1.474;2023-01-09T16:34:02;4;2;
55754;PMS5003;41674;52.290;-1.474;2023-01-09T16:36:30;6;3;
55754;PMS5003;41674;52.290;-1.474;2023-01-09T16:38:59;4;3;
55754;PMS5003;41674;52.290;-1.474;2023-01-09T16:41:29;6;3;
55754;PMS5003;41674;52.290;-1.474;2023-01-09T16:43:59;7;3;
55754;PMS5003;41674;52.290;-1.474;2023-01-09T16:46:28;64;53;
55754;PMS5003;41674;52.290;-1.474;2023-01-09T16:48:58;2;2;
55754;PMS5003;41674;52.290;-1.474;2023-01-09T16:51:27;8;6;
55754;PMS5003;41674;52.290;-1.474;2023-01-09T16:53:57;5;5;
55754;PMS5003;41674;52.290;-1.474;2023-01-09T16:56:28;7;5;
55754;PMS5003;41674;52.290;-1.474;2023-01-09T16:58:56;6;4;
55754;PMS5003;41674;52.290;-1.474;2023-01-09T17:01:26;8;7;
55754;PMS5003;41674;52.290;-1.474;2023-01-09T17:03:56;38;32;
55754;PMS5003;41674;52.290;-1.474;2023-01-09T17:06:27;6;6;
55754;PMS5003;41674;52.290;-1.474;2023-01-09T17:08:55;11;9;
55754;PMS5003;41674;52.290;-1.474;2023-01-09T17:11:25;49;38;
55754;PMS5003;41674;52.290;-1.474;2023-01-09T17:13:54;41;32;
55754;PMS5003;41674;52.290;-1.474;2023-01-09T17:16:23;137;115;
55754;PMS5003;41674;52.290;-1.474;2023-01-09T17:18:53;206;161;
55754;PMS5003;41674;52.290;-1.474;2023-01-09T17:21:23;283;220;
55754;PMS5003;41674;52.290;-1.474;2023-01-09T17:23:52;257;214;
55754;PMS5003;41674;52.290;-1.474;2023-01-09T17:26:21;103;90;
55754;PMS5003;41674;52.290;-1.474;2023-01-09T17:28:50;57;47;
55754;PMS5003;41674;52.290;-1.474;2023-01-09T17:31:20;99;88;